Time,TemperatureF,DewpointF,PressureIn,WindDirection,WindDirectionDegrees,WindSpeedMPH,WindSpeedGustMPH,Humidity,HourlyPrecipIn,Conditions,Clouds,dailyrainin,SoftwareType,DateUTC
2013-02-10 00:01:00,-3.9,-7.0,29.92,West,280,0.0,0.0,85,0.00,,,0.00,weatherlink.com 1.10,2013-02-10 07:01:00,
2013-02-10 00:16:00,-4.8,-8.0,29.93,WNW,288,0.0,0.0,84,0.00,,,0.00,weatherlink.com 1.10,2013-02-10 07:16:00,
2013-02-10 00:31:00,-6.4,-10.0,29.94,West,266,0.0,0.0,83,0.00,,,0.00,weatherlink.com 1.10,2013-02-10 07:31:00,
2013-02-10 00:46:00,-7.7,-12.0,29.95,NNW,328,0.0,0.0,82,0.00,,,0.00,weatherlink.com 1.10,2013-02-10 07:46:00,
2013-02-10 01:01:00,-6.8,-11.0,29.96,WNW,294,0.0,0.0,82,0.00,,,0.00,weatherlink.com 1.10,2013-02-10 08:01:00,
2013-02-10 01:16:00,-8.6,-13.0,29.97,North,352,0.0,1.0,82,0.00,,,0.00,weatherlink.com 1.10,2013-02-10 08:16:00,
2013-02-10 01:31:00,-8.5,-12.0,29.99,NNW,332,0.0,1.0,83,0.00,,,0.00,weatherlink.com 1.10,2013-02-10 08:31:00,
2013-02-10 01:46:00,-9.9,-14.0,30.00,West,273,0.0,1.0,80,0.00,,,0.00,weatherlink.com 1.10,2013-02-10 08:46:00,
2013-02-10 02:01:00,-8.0,-12.0,30.01,NNE,15,0.0,1.0,83,0.00,,,0.00,weatherlink.com 1.10,2013-02-10 09:01:00,
2013-02-10 02:16:00,-6.8,-11.0,30.02,NNW,340,0.0,1.0,83,0.00,,,0.00,weatherlink.com 1.10,2013-02-10 09:16:00,
2013-02-10 02:31:00,-7.7,-12.0,30.03,WNW,284,0.0,2.0,83,0.00,,,0.00,weatherlink.com 1.10,2013-02-10 09:31:00,
2013-02-10 02:46:00,-6.2,-10.0,30.04,NNW,347,0.0,1.0,83,0.00,,,0.00,weatherlink.com 1.10,2013-02-10 09:46:00,
2013-02-10 03:01:00,-6.3,-10.0,30.04,NW,311,0.0,0.0,83,0.00,,,0.00,weatherlink.com 1.10,2013-02-10 10:01:00,
2013-02-10 03:17:00,-5.9,-10.0,30.05,SW,235,0.0,0.0,83,0.00,,,0.00,weatherlink.com 1.10,2013-02-10 10:17:00,
2013-02-10 03:32:00,-5.8,-10.0,30.06,ENE,64,0.0,0.0,83,0.00,,,0.00,weatherlink.com 1.10,2013-02-10 10:32:00,
2013-02-10 03:47:00,-5.3,-9.0,30.07,West,278,0.0,0.0,83,0.00,,,0.00,weatherlink.com 1.10,2013-02-10 10:47:00,
2013-02-10 04:02:00,-4.7,-8.0,30.07,North,359,0.0,0.0,84,0.00,,,0.00,weatherlink.com 1.10,2013-02-10 11:02:00,
2013-02-10 04:17:00,-3.7,-7.0,30.07,North,358,0.0,0.0,84,0.00,,,0.00,weatherlink.com 1.10,2013-02-10 11:17:00,
2013-02-10 04:32:00,-3.2,-7.0,30.09,West,274,0.0,0.0,83,0.00,,,0.00,weatherlink.com 1.10,2013-02-10 11:32:00,
2013-02-10 04:47:00,-5.0,-9.0,30.09,West,276,0.0,0.0,82,0.00,,,0.00,weatherlink.com 1.10,2013-02-10 11:47:00,
2013-02-10 05:02:00,-5.8,-10.0,30.10,NNE,28,0.0,0.0,83,0.00,,,0.00,weatherlink.com 1.10,2013-02-10 12:02:00,
2013-02-10 05:17:00,-6.5,-11.0,30.11,West,274,0.0,0.0,82,0.00,,,0.00,weatherlink.com 1.10,2013-02-10 12:17:00,
2013-02-10 05:32:00,-6.5,-10.0,30.12,NNE,15,1.0,1.0,84,0.00,,,0.00,weatherlink.com 1.10,2013-02-10 12:32:00,
2013-02-10 05:47:00,-7.7,-12.0,30.13,WNW,302,1.0,1.0,82,0.00,,,0.00,weatherlink.com 1.10,2013-02-10 12:47:00,
2013-02-10 06:02:00,-10.4,-15.0,30.14,NNW,328,0.0,1.0,81,0.00,,,0.00,weatherlink.com 1.10,2013-02-10 13:02:00,
2013-02-10 06:17:00,-9.3,-13.0,30.15,NW,322,0.0,1.0,83,0.00,,,0.00,weatherlink.com 1.10,2013-02-10 13:17:00,
2013-02-10 06:33:00,-11.7,-16.0,30.17,WNW,299,0.0,1.0,81,0.00,,,0.00,weatherlink.com 1.10,2013-02-10 13:33:00,
2013-02-10 06:48:00,-10.7,-15.0,30.18,NNW,337,0.0,0.0,82,0.00,,,0.00,weatherlink.com 1.10,2013-02-10 13:48:00,
2013-02-10 07:03:00,-11.6,-16.0,30.20,NNW,329,0.0,1.0,81,0.00,,,0.00,weatherlink.com 1.10,2013-02-10 14:03:00,
2013-02-10 07:18:00,-11.6,-15.0,30.20,WNW,297,0.0,1.0,83,0.00,,,0.00,weatherlink.com 1.10,2013-02-10 14:18:00,
2013-02-10 07:33:00,-12.3,-17.0,30.22,WNW,300,0.0,1.0,81,0.00,,,0.00,weatherlink.com 1.10,2013-02-10 14:33:00,
2013-02-10 07:48:00,-10.1,-14.0,30.24,WNW,300,0.0,0.0,82,0.00,,,0.00,weatherlink.com 1.10,2013-02-10 14:48:00,
2013-02-10 08:03:00,-9.3,-14.0,30.25,WNW,299,0.0,0.0,80,0.00,,,0.00,weatherlink.com 1.10,2013-02-10 15:03:00,
2013-02-10 08:18:00,-8.9,-13.0,30.27,West,277,0.0,0.0,81,0.00,,,0.00,weatherlink.com 1.10,2013-02-10 15:18:00,
2013-02-10 08:33:00,-7.2,-11.0,30.28,NW,322,0.0,0.0,82,0.00,,,0.00,weatherlink.com 1.10,2013-02-10 15:33:00,
2013-02-10 08:48:00,-5.1,-9.0,30.29,WNW,302,0.0,0.0,82,0.00,,,0.00,weatherlink.com 1.10,2013-02-10 15:48:00,
2013-02-10 09:03:00,-0.5,-4.0,30.29,WNW,302,0.0,0.0,84,0.00,,,0.00,weatherlink.com 1.10,2013-02-10 16:03:00,
2013-02-10 09:18:00,0.8,-4.0,30.29,NW,304,0.0,0.0,79,0.00,,,0.00,weatherlink.com 1.10,2013-02-10 16:18:00,
2013-02-10 09:33:00,1.5,-4.0,30.29,West,278,0.0,0.0,78,0.00,,,0.00,weatherlink.com 1.10,2013-02-10 16:33:00,
2013-02-10 09:48:00,2.8,-4.0,30.30,East,89,0.0,0.0,74,0.00,,,0.00,weatherlink.com 1.10,2013-02-10 16:48:00,
2013-02-10 10:04:00,4.0,-2.0,30.30,East,96,0.0,0.0,76,0.00,,,0.00,weatherlink.com 1.10,2013-02-10 17:04:00,
2013-02-10 10:19:00,5.6,-1.0,30.30,West,281,0.0,0.0,75,0.00,,,0.00,weatherlink.com 1.10,2013-02-10 17:19:00,
2013-02-10 10:34:00,8.1,0.0,30.30,ESE,117,1.0,2.0,69,0.00,,,0.00,weatherlink.com 1.10,2013-02-10 17:34:00,
2013-02-10 10:49:00,6.1,-1.0,30.30,SE,145,2.0,7.0,71,0.00,,,0.00,weatherlink.com 1.10,2013-02-10 17:49:00,
2013-02-10 11:04:00,7.6,0.0,30.30,SE,129,1.0,3.0,71,0.00,,,0.00,weatherlink.com 1.10,2013-02-10 18:04:00,
2013-02-10 11:19:00,12.7,4.0,30.30,East,98,0.0,1.0,68,0.00,,,0.00,weatherlink.com 1.10,2013-02-10 18:19:00,
2013-02-10 11:34:00,11.6,-2.0,30.30,NW,312,1.0,3.0,55,0.00,,,0.00,weatherlink.com 1.10,2013-02-10 18:34:00,
2013-02-10 11:49:00,6.0,-4.0,30.30,WNW,288,2.0,5.0,65,0.00,,,0.00,weatherlink.com 1.10,2013-02-10 18:49:00,
2013-02-10 12:04:00,5.8,-2.0,30.29,NW,314,3.0,3.0,71,0.00,,,0.00,weatherlink.com 1.10,2013-02-10 19:04:00,
2013-02-10 12:19:00,10.0,1.0,30.29,NW,319,1.0,3.0,67,0.00,,,0.00,weatherlink.com 1.10,2013-02-10 19:19:00,
2013-02-10 12:34:00,15.5,4.0,30.28,NNW,340,1.0,2.0,60,0.00,,,0.00,weatherlink.com 1.10,2013-02-10 19:34:00,
2013-02-10 12:49:00,17.6,5.0,30.27,NW,319,5.0,6.0,57,0.00,,,0.00,weatherlink.com 1.10,2013-02-10 19:49:00,
2013-02-10 13:04:00,15.8,5.0,30.26,WNW,291,3.0,7.0,62,0.00,,,0.00,weatherlink.com 1.10,2013-02-10 20:04:00,
2013-02-10 13:20:00,17.3,6.0,30.25,NW,314,3.0,5.0,62,0.00,,,0.00,weatherlink.com 1.10,2013-02-10 20:20:00,
2013-02-10 13:35:00,16.4,6.0,30.25,WNW,300,6.0,6.0,63,0.00,,,0.00,weatherlink.com 1.10,2013-02-10 20:35:00,
2013-02-10 13:50:00,19.2,8.0,30.25,NNW,330,3.0,4.0,63,0.00,,,0.00,weatherlink.com 1.10,2013-02-10 20:50:00,
2013-02-10 14:05:00,21.8,9.0,30.26,SW,225,0.0,2.0,58,0.00,,,0.00,weatherlink.com 1.10,2013-02-10 21:05:00,
2013-02-10 14:20:00,22.3,9.0,30.27,SSE,168,1.0,18.0,57,0.00,,,0.00,weatherlink.com 1.10,2013-02-10 21:20:00,
2013-02-10 14:35:00,24.1,8.0,30.26,SE,126,10.0,13.0,50,0.00,,,0.00,weatherlink.com 1.10,2013-02-10 21:35:00,
2013-02-10 14:50:00,24.5,7.0,30.26,SW,218,9.0,12.0,47,0.00,,,0.00,weatherlink.com 1.10,2013-02-10 21:50:00,
2013-02-10 15:05:00,21.1,8.0,30.27,East,92,8.0,15.0,56,0.00,,,0.00,weatherlink.com 1.10,2013-02-10 22:05:00,
2013-02-10 15:20:00,20.0,8.0,30.28,East,91,2.0,10.0,59,0.00,,,0.00,weatherlink.com 1.10,2013-02-10 22:20:00,
2013-02-10 15:35:00,20.1,8.0,30.28,ESE,107,6.0,6.0,60,0.00,,,0.00,weatherlink.com 1.10,2013-02-10 22:35:00,
2013-02-10 15:50:00,19.2,7.0,30.29,ENE,58,2.0,7.0,58,0.00,,,0.00,weatherlink.com 1.10,2013-02-10 22:50:00,
2013-02-10 16:05:00,18.9,8.0,30.29,East,99,5.0,6.0,62,0.00,,,0.00,weatherlink.com 1.10,2013-02-10 23:05:00,
2013-02-10 16:20:00,19.2,8.0,30.30,NNE,33,2.0,4.0,61,0.00,,,0.00,weatherlink.com 1.10,2013-02-10 23:20:00,
2013-02-10 16:36:00,17.8,7.0,30.30,North,5,1.0,8.0,63,0.00,,,0.00,weatherlink.com 1.10,2013-02-10 23:36:00,
2013-02-10 16:51:00,17.4,7.0,30.31,West,259,0.0,4.0,64,0.00,,,0.00,weatherlink.com 1.10,2013-02-10 23:51:00,
2013-02-10 17:06:00,16.2,8.0,30.31,East,95,4.0,9.0,69,0.00,,,0.00,weatherlink.com 1.10,2013-02-11 00:06:00,
2013-02-10 17:21:00,14.9,7.0,30.31,SSE,163,3.0,6.0,72,0.00,,,0.00,weatherlink.com 1.10,2013-02-11 00:21:00,
2013-02-10 17:36:00,15.3,8.0,30.32,SE,129,4.0,8.0,74,0.00,,,0.00,weatherlink.com 1.10,2013-02-11 00:36:00,
2013-02-10 17:51:00,14.8,9.0,30.32,ESE,114,5.0,8.0,76,0.00,,,0.00,weatherlink.com 1.10,2013-02-11 00:51:00,
2013-02-10 18:07:00,13.8,8.0,30.34,SSE,158,4.0,5.0,78,0.00,,,0.00,weatherlink.com 1.10,2013-02-11 01:07:00,
2013-02-10 18:21:00,13.6,9.0,30.34,South,170,4.0,6.0,80,0.00,,,0.00,weatherlink.com 1.10,2013-02-11 01:21:00,
2013-02-10 18:36:00,13.3,8.0,30.35,South,190,3.0,4.0,79,0.00,,,0.00,weatherlink.com 1.10,2013-02-11 01:36:00,
2013-02-10 18:51:00,13.5,9.0,30.35,SSE,164,2.0,-999.0,81,-99.99,,,0.00,weatherlink.com 1.10,2013-02-11 01:51:00,
2013-02-10 19:06:00,12.5,7.0,30.35,SSW,203,2.0,4.0,80,0.00,,,0.00,weatherlink.com 1.10,2013-02-11 02:06:00,
2013-02-10 19:21:00,11.7,7.0,30.36,SSE,158,1.0,4.0,80,0.00,,,0.00,weatherlink.com 1.10,2013-02-11 02:21:00,
2013-02-10 19:36:00,11.0,6.0,30.36,SSE,150,0.0,3.0,81,0.00,,,0.00,weatherlink.com 1.10,2013-02-11 02:36:00,
2013-02-10 19:52:00,9.9,6.0,30.37,WNW,287,0.0,0.0,84,0.00,,,0.00,weatherlink.com 1.10,2013-02-11 02:52:00,
2013-02-10 20:07:00,9.3,5.0,30.38,NW,305,1.0,3.0,81,0.00,,,0.00,weatherlink.com 1.10,2013-02-11 03:07:00,
2013-02-10 20:22:00,8.5,5.0,30.39,WNW,288,1.0,2.0,84,0.00,,,0.00,weatherlink.com 1.10,2013-02-11 03:22:00,
2013-02-10 20:37:00,7.6,3.0,30.39,NW,305,2.0,4.0,81,0.00,,,0.00,weatherlink.com 1.10,2013-02-11 03:37:00,
2013-02-10 20:52:00,5.4,1.0,30.40,WNW,297,0.0,2.0,83,0.00,,,0.00,weatherlink.com 1.10,2013-02-11 03:52:00,
2013-02-10 21:07:00,5.8,2.0,30.41,NNW,327,1.0,2.0,84,0.00,,,0.00,weatherlink.com 1.10,2013-02-11 04:07:00,
2013-02-10 21:22:00,5.9,2.0,30.41,NNW,338,1.0,2.0,82,0.00,,,0.00,weatherlink.com 1.10,2013-02-11 04:22:00,
2013-02-10 21:37:00,4.9,1.0,30.41,WNW,302,0.0,1.0,82,0.00,,,0.00,weatherlink.com 1.10,2013-02-11 04:37:00,
2013-02-10 21:52:00,4.9,1.0,30.42,NW,308,0.0,0.0,83,0.00,,,0.00,weatherlink.com 1.10,2013-02-11 04:52:00,
2013-02-10 22:07:00,4.8,1.0,30.42,NW,315,0.0,0.0,83,0.00,,,0.00,weatherlink.com 1.10,2013-02-11 05:07:00,
2013-02-10 22:22:00,5.1,1.0,30.42,NW,315,0.0,0.0,84,0.00,,,0.00,weatherlink.com 1.10,2013-02-11 05:22:00,
2013-02-10 22:37:00,5.9,2.0,30.42,NW,315,0.0,0.0,84,0.00,,,0.00,weatherlink.com 1.10,2013-02-11 05:37:00,
2013-02-10 22:52:00,6.6,3.0,30.42,NW,315,0.0,0.0,86,0.00,,,0.00,weatherlink.com 1.10,2013-02-11 05:52:00,
2013-02-10 23:07:00,6.5,3.0,30.43,WNW,288,0.0,0.0,84,0.00,,,0.00,weatherlink.com 1.10,2013-02-11 06:07:00,
2013-02-10 23:23:00,6.6,3.0,30.42,WNW,288,0.0,0.0,86,0.00,,,0.00,weatherlink.com 1.10,2013-02-11 06:23:00,
2013-02-10 23:38:00,6.7,3.0,30.42,WNW,288,0.0,0.0,86,0.00,,,0.00,weatherlink.com 1.10,2013-02-11 06:38:00,
2013-02-10 23:53:00,6.5,3.0,30.42,WNW,288,0.0,0.0,86,0.00,,,0.00,weatherlink.com 1.10,2013-02-11 06:53:00,